sensor_id;sensor_type;location;lat;lon;timestamp;pressure;altitude;pressure_sealevel;temperature;humidity
69535;BME280;56754;51.568;5.048;2023-10-19T00:02:12;99205.22;;;14.14;68.31
69535;BME280;56754;51.568;5.048;2023-10-19T00:04:38;99194.47;;;14.14;68.33
69535;BME280;56754;51.568;5.048;2023-10-19T00:07:03;99199.47;;;14.15;68.36
69535;BME280;56754;51.568;5.048;2023-10-19T00:09:28;99192.19;;;14.16;68.43
69535;BME280;56754;51.568;5.048;2023-10-19T00:11:55;99191.03;;;14.17;68.40
69535;BME280;56754;51.568;5.048;2023-10-19T00:14:20;99194.50;;;14.17;68.25
69535;BME280;56754;51.568;5.048;2023-10-19T00:16:45;99191.81;;;14.17;68.19
69535;BME280;56754;51.568;5.048;2023-10-19T00:19:11;99185.28;;;14.18;68.43
69535;BME280;56754;51.568;5.048;2023-10-19T00:21:36;99194.13;;;14.19;68.33
69535;BME280;56754;51.568;5.048;2023-10-19T00:24:01;99194.13;;;14.19;68.32
69535;BME280;56754;51.568;5.048;2023-10-19T00:26:27;99185.69;;;14.20;68.46
69535;BME280;56754;51.568;5.048;2023-10-19T00:28:52;99185.69;;;14.20;68.21
69535;BME280;56754;51.568;5.048;2023-10-19T00:31:18;99185.31;;;14.22;68.30
69535;BME280;56754;51.568;5.048;2023-10-19T00:33:43;99188.78;;;14.22;68.26
69535;BME280;56754;51.568;5.048;2023-10-19T00:36:09;99178.03;;;14.22;68.21
69535;BME280;56754;51.568;5.048;2023-10-19T00:38:35;99189.56;;;14.23;68.26
69535;BME280;56754;51.568;5.048;2023-10-19T00:41:01;99195.31;;;14.25;68.29
69535;BME280;56754;51.568;5.048;2023-10-19T00:43:31;99194.56;;;14.24;68.26
69535;BME280;56754;51.568;5.048;2023-10-19T00:45:56;99194.56;;;14.24;68.29
69535;BME280;56754;51.568;5.048;2023-10-19T00:48:22;99196.47;;;14.24;68.24
69535;BME280;56754;51.568;5.048;2023-10-19T00:50:47;99189.19;;;14.24;68.42
69535;BME280;56754;51.568;5.048;2023-10-19T00:53:12;99192.28;;;14.26;68.39
69535;BME280;56754;51.568;5.048;2023-10-19T00:55:38;99187.66;;;14.27;68.25
69535;BME280;56754;51.568;5.048;2023-10-19T00:58:04;99184.97;;;14.27;68.26
69535;BME280;56754;51.568;5.048;2023-10-19T01:00:29;99183.81;;;14.28;68.27
69535;BME280;56754;51.568;5.048;2023-10-19T01:02:54;99188.84;;;14.29;68.17
69535;BME280;56754;51.568;5.048;2023-10-19T01:05:20;99185.00;;;14.30;68.22
69535;BME280;56754;51.568;5.048;2023-10-19T01:07:45;99183.84;;;14.31;68.22
69535;BME280;56754;51.568;5.048;2023-10-19T01:10:11;99180.38;;;14.31;68.19
69535;BME280;56754;51.568;5.048;2023-10-19T01:12:36;99178.09;;;14.33;68.14
69535;BME280;56754;51.568;5.048;2023-10-19T01:15:08;99178.88;;;14.33;68.33
69535;BME280;56754;51.568;5.048;2023-10-19T01:17:35;99175.81;;;14.35;68.15
69535;BME280;56754;51.568;5.048;2023-10-19T01:20:01;99180.03;;;14.36;68.12
69535;BME280;56754;51.568;5.048;2023-10-19T01:22:26;99180.81;;;14.37;68.12
69535;BME280;56754;51.568;5.048;2023-10-19T01:24:51;99177.75;;;14.38;68.12
69535;BME280;56754;51.568;5.048;2023-10-19T01:27:16;99185.44;;;14.40;67.97
69535;BME280;56754;51.568;5.048;2023-10-19T01:29:41;99180.06;;;14.40;67.93
69535;BME280;56754;51.568;5.048;2023-10-19T01:32:07;99185.06;;;14.41;68.11
69535;BME280;56754;51.568;5.048;2023-10-19T01:34:32;99182.00;;;14.43;67.89
69535;BME280;56754;51.568;5.048;2023-10-19T01:36:57;99184.31;;;14.44;68.07
69535;BME280;56754;51.568;5.048;2023-10-19T01:39:23;99184.69;;;14.46;67.86
69535;BME280;56754;51.568;5.048;2023-10-19T01:41:48;99188.19;;;14.47;68.01
69535;BME280;56754;51.568;5.048;2023-10-19T01:44:13;99185.88;;;14.49;67.85
69535;BME280;56754;51.568;5.048;2023-10-19T01:46:39;99189.34;;;14.49;67.67
69535;BME280;56754;51.568;5.048;2023-10-19T01:49:05;99191.66;;;14.51;67.90
69535;BME280;56754;51.568;5.048;2023-10-19T01:51:33;99194.34;;;14.51;67.81
69535;BME280;56754;51.568;5.048;2023-10-19T01:53:59;99189.41;;;14.53;68.03
69535;BME280;56754;51.568;5.048;2023-10-19T01:56:25;99193.63;;;14.54;68.02
69535;BME280;56754;51.568;5.048;2023-10-19T01:58:51;99195.94;;;14.55;68.59
69535;BME280;56754;51.568;5.048;2023-10-19T02:01:16;99184.81;;;14.57;68.09
69535;BME280;56754;51.568;5.048;2023-10-19T02:03:42;99187.91;;;14.59;67.92
69535;BME280;56754;51.568;5.048;2023-10-19T02:06:12;99195.97;;;14.59;67.94
69535;BME280;56754;51.568;5.048;2023-10-19T02:08:37;99192.88;;;14.61;67.98
69535;BME280;56754;51.568;5.048;2023-10-19T02:11:02;99195.22;;;14.62;67.90
69535;BME280;56754;51.568;5.048;2023-10-19T02:13:28;99183.69;;;14.62;67.56
69535;BME280;56754;51.568;5.048;2023-10-19T02:15:53;99182.16;;;14.64;67.65
69535;BME280;56754;51.568;5.048;2023-10-19T02:18:18;99179.47;;;14.64;67.91
69535;BME280;56754;51.568;5.048;2023-10-19T02:20:44;99180.25;;;14.65;68.11
69535;BME280;56754;51.568;5.048;2023-10-19T02:23:09;99178.31;;;14.65;68.08
69535;BME280;56754;51.568;5.048;2023-10-19T02:25:34;99182.53;;;14.66;67.79
69535;BME280;56754;51.568;5.048;2023-10-19T02:27:59;99187.16;;;14.69;67.66
69535;BME280;56754;51.568;5.048;2023-10-19T02:30:25;99173.72;;;14.69;68.12
69535;BME280;56754;51.568;5.048;2023-10-19T02:32:50;99169.91;;;14.70;67.68
69535;BME280;56754;51.568;5.048;2023-10-19T02:35:16;99178.75;;;14.71;67.60
69535;BME280;56754;51.568;5.048;2023-10-19T02:37:41;99182.19;;;14.71;67.85
69535;BME280;56754;51.568;5.048;2023-10-19T02:40:07;99176.06;;;14.71;67.71
69535;BME280;56754;51.568;5.048;2023-10-19T02:42:32;99171.44;;;14.71;68.25
69535;BME280;56754;51.568;5.048;2023-10-19T02:44:57;99180.28;;;14.72;68.93
69535;BME280;56754;51.568;5.048;2023-10-19T02:47:23;99174.13;;;14.71;68.73
69535;BME280;56754;51.568;5.048;2023-10-19T02:49:48;99169.91;;;14.70;68.29
69535;BME280;56754;51.568;5.048;2023-10-19T02:52:13;99179.13;;;14.73;68.14
69535;BME280;56754;51.568;5.048;2023-10-19T02:54:38;99167.59;;;14.72;68.17
69535;BME280;56754;51.568;5.048;2023-10-19T02:57:04;99171.84;;;14.73;68.07
69535;BME280;56754;51.568;5.048;2023-10-19T02:59:29;99171.06;;;14.73;67.83
69535;BME280;56754;51.568;5.048;2023-10-19T03:01:56;99175.28;;;14.74;67.92
69535;BME280;56754;51.568;5.048;2023-10-19T03:04:22;99162.63;;;14.74;67.76
69535;BME280;56754;51.568;5.048;2023-10-19T03:06:47;99160.69;;;14.75;67.80
69535;BME280;56754;51.568;5.048;2023-10-19T03:09:12;99170.31;;;14.76;67.90
69535;BME280;56754;51.568;5.048;2023-10-19T03:11:41;99153.38;;;14.75;67.55
69535;BME280;56754;51.568;5.048;2023-10-19T03:14:07;99162.25;;;14.76;67.72
69535;BME280;56754;51.568;5.048;2023-10-19T03:16:32;99154.56;;;14.78;67.64
69535;BME280;56754;51.568;5.048;2023-10-19T03:18:58;99153.78;;;14.77;67.33
69535;BME280;56754;51.568;5.048;2023-10-19T03:21:23;99148.41;;;14.77;67.76
69535;BME280;56754;51.568;5.048;2023-10-19T03:23:48;99144.56;;;14.78;67.35
69535;BME280;56754;51.568;5.048;2023-10-19T03:26:13;99149.94;;;14.78;67.26
69535;BME280;56754;51.568;5.048;2023-10-19T03:28:39;99141.88;;;14.78;67.53
69535;BME280;56754;51.568;5.048;2023-10-19T03:31:04;99143.44;;;14.79;67.47
69535;BME280;56754;51.568;5.048;2023-10-19T03:33:29;99150.34;;;14.81;67.40
69535;BME280;56754;51.568;5.048;2023-10-19T03:35:54;99146.50;;;14.82;67.32
69535;BME280;56754;51.568;5.048;2023-10-19T03:38:20;99138.44;;;14.82;67.46
69535;BME280;56754;51.568;5.048;2023-10-19T03:40:45;99144.59;;;14.82;67.49
69535;BME280;56754;51.568;5.048;2023-10-19T03:43:11;99140.75;;;14.83;67.37
69535;BME280;56754;51.568;5.048;2023-10-19T03:45:36;99131.16;;;14.82;67.50
69535;BME280;56754;51.568;5.048;2023-10-19T03:48:01;99139.22;;;14.82;67.95
69535;BME280;56754;51.568;5.048;2023-10-19T03:50:27;99131.16;;;14.82;67.64
69535;BME280;56754;51.568;5.048;2023-10-19T03:52:52;99121.16;;;14.83;67.83
69535;BME280;56754;51.568;5.048;2023-10-19T03:55:17;99141.13;;;14.82;67.68
69535;BME280;56754;51.568;5.048;2023-10-19T03:57:42;99132.28;;;14.81;67.62
69535;BME280;56754;51.568;5.048;2023-10-19T04:00:08;99131.53;;;14.81;67.62
69535;BME280;56754;51.568;5.048;2023-10-19T04:02:33;99129.22;;;14.79;67.50
69535;BME280;56754;51.568;5.048;2023-10-19T04:04:59;99132.28;;;14.77;67.64
69535;BME280;56754;51.568;5.048;2023-10-19T04:07:24;99126.50;;;14.75;67.78
69535;BME280;56754;51.568;5.048;2023-10-19T04:09:51;99126.88;;;14.74;67.70
69535;BME280;56754;51.568;5.048;2023-10-19T04:12:16;99123.81;;;14.72;67.72
69535;BME280;56754;51.568;5.048;2023-10-19T04:14:42;99132.25;;;14.70;67.68
69535;BME280;56754;51.568;5.048;2023-10-19T04:17:07;99129.94;;;14.69;67.77
69535;BME280;56754;51.568;5.048;2023-10-19T04:19:32;99133.00;;;14.67;67.80
69535;BME280;56754;51.568;5.048;2023-10-19T04:21:57;99125.31;;;14.66;67.70
69535;BME280;56754;51.568;5.048;2023-10-19T04:24:23;99132.63;;;14.65;67.91
69535;BME280;56754;51.568;5.048;2023-10-19T04:26:48;99128.41;;;14.64;67.85
69535;BME280;56754;51.568;5.048;2023-10-19T04:29:13;99126.84;;;14.63;68.04
69535;BME280;56754;51.568;5.048;2023-10-19T04:31:39;99131.84;;;14.61;67.97
69535;BME280;56754;51.568;5.048;2023-10-19T04:34:04;99134.53;;;14.61;68.04
69535;BME280;56754;51.568;5.048;2023-10-19T04:36:29;99139.50;;;14.59;68.03
69535;BME280;56754;51.568;5.048;2023-10-19T04:38:55;99129.88;;;14.58;68.02
69535;BME280;56754;51.568;5.048;2023-10-19T04:41:20;99132.97;;;14.56;68.00
69535;BME280;56754;51.568;5.048;2023-10-19T04:43:45;99131.44;;;14.55;68.09
69535;BME280;56754;51.568;5.048;2023-10-19T04:46:11;99130.63;;;14.55;68.09
69535;BME280;56754;51.568;5.048;2023-10-19T04:48:37;99122.97;;;14.53;68.07
69535;BME280;56754;51.568;5.048;2023-10-19T04:51:03;99124.88;;;14.53;68.12
69535;BME280;56754;51.568;5.048;2023-10-19T04:53:28;99128.69;;;14.52;68.19
69535;BME280;56754;51.568;5.048;2023-10-19T04:55:53;99142.13;;;14.52;68.35
69535;BME280;56754;51.568;5.048;2023-10-19T04:58:18;99138.69;;;14.51;68.11
69535;BME280;56754;51.568;5.048;2023-10-19T05:00:44;99138.28;;;14.49;68.21
69535;BME280;56754;51.568;5.048;2023-10-19T05:03:09;99141.72;;;14.50;68.20
69535;BME280;56754;51.568;5.048;2023-10-19T05:05:34;99125.59;;;14.50;68.21
69535;BME280;56754;51.568;5.048;2023-10-19T05:08:00;99141.72;;;14.50;68.19
69535;BME280;56754;51.568;5.048;2023-10-19T05:10:25;99140.16;;;14.49;68.19
69535;BME280;56754;51.568;5.048;2023-10-19T05:12:50;99147.09;;;14.50;68.25
69535;BME280;56754;51.568;5.048;2023-10-19T05:15:15;99149.78;;;14.50;68.26
69535;BME280;56754;51.568;5.048;2023-10-19T05:17:41;99144.41;;;14.50;68.20
69535;BME280;56754;51.568;5.048;2023-10-19T05:20:06;99147.09;;;14.50;68.11
69535;BME280;56754;51.568;5.048;2023-10-19T05:22:32;99150.56;;;14.50;68.28
69535;BME280;56754;51.568;5.048;2023-10-19T05:24:57;99151.34;;;14.51;68.17
69535;BME280;56754;51.568;5.048;2023-10-19T05:27:22;99154.03;;;14.51;68.34
69535;BME280;56754;51.568;5.048;2023-10-19T05:29:48;99154.03;;;14.51;68.40
69535;BME280;56754;51.568;5.048;2023-10-19T05:32:14;99154.03;;;14.51;68.27
69535;BME280;56754;51.568;5.048;2023-10-19T05:34:39;99151.34;;;14.51;68.28
69535;BME280;56754;51.568;5.048;2023-10-19T05:37:04;99152.13;;;14.51;68.34
69535;BME280;56754;51.568;5.048;2023-10-19T05:39:30;99158.28;;;14.52;68.40
69535;BME280;56754;51.568;5.048;2023-10-19T05:41:55;99158.28;;;14.52;68.28
69535;BME280;56754;51.568;5.048;2023-10-19T05:44:20;99155.56;;;14.52;68.23
69535;BME280;56754;51.568;5.048;2023-10-19T05:46:46;99150.59;;;14.54;68.21
69535;BME280;56754;51.568;5.048;2023-10-19T05:49:11;99162.13;;;14.54;68.18
69535;BME280;56754;51.568;5.048;2023-10-19T05:51:36;99162.13;;;14.54;68.30
69535;BME280;56754;51.568;5.048;2023-10-19T05:54:02;99157.50;;;14.55;68.31
69535;BME280;56754;51.568;5.048;2023-10-19T05:56:28;99159.06;;;14.56;68.36
69535;BME280;56754;51.568;5.048;2023-10-19T05:58:53;99154.81;;;14.55;68.26
69535;BME280;56754;51.568;5.048;2023-10-19T06:01:19;99165.22;;;14.56;68.34
69535;BME280;56754;51.568;5.048;2023-10-19T06:03:45;99160.25;;;14.59;68.32
69535;BME280;56754;51.568;5.048;2023-10-19T06:06:10;99156.00;;;14.57;68.57
69535;BME280;56754;51.568;5.048;2023-10-19T06:08:36;99161.00;;;14.59;68.37
69535;BME280;56754;51.568;5.048;2023-10-19T06:11:01;99161.78;;;14.60;68.41
69535;BME280;56754;51.568;5.048;2023-10-19T06:13:26;99158.31;;;14.59;68.60
69535;BME280;56754;51.568;5.048;2023-10-19T06:15:52;99167.91;;;14.60;68.39
69535;BME280;56754;51.568;5.048;2023-10-19T06:18:17;99166.78;;;14.61;68.46
69535;BME280;56754;51.568;5.048;2023-10-19T06:20:43;99174.84;;;14.61;68.43
69535;BME280;56754;51.568;5.048;2023-10-19T06:23:09;99172.16;;;14.61;68.45
69535;BME280;56754;51.568;5.048;2023-10-19T06:25:34;99166.78;;;14.61;68.47
69535;BME280;56754;51.568;5.048;2023-10-19T06:27:59;99174.84;;;14.61;68.34
69535;BME280;56754;51.568;5.048;2023-10-19T06:30:25;99184.47;;;14.62;68.42
69535;BME280;56754;51.568;5.048;2023-10-19T06:32:53;99187.16;;;14.62;68.44
69535;BME280;56754;51.568;5.048;2023-10-19T06:35:19;99192.13;;;14.64;68.51
69535;BME280;56754;51.568;5.048;2023-10-19T06:37:45;99191.78;;;14.65;68.38
69535;BME280;56754;51.568;5.048;2023-10-19T06:40:11;99189.09;;;14.65;68.57
69535;BME280;56754;51.568;5.048;2023-10-19T06:42:37;99202.94;;;14.67;68.58
69535;BME280;56754;51.568;5.048;2023-10-19T06:45:03;99196.41;;;14.68;68.97
69535;BME280;56754;51.568;5.048;2023-10-19T06:47:29;99197.16;;;14.69;68.67
69535;BME280;56754;51.568;5.048;2023-10-19T06:49:54;99196.00;;;14.70;68.57
69535;BME280;56754;51.568;5.048;2023-10-19T06:52:19;99198.34;;;14.71;68.40
69535;BME280;56754;51.568;5.048;2023-10-19T06:54:44;99193.72;;;14.72;68.71
69535;BME280;56754;51.568;5.048;2023-10-19T06:57:10;99186.41;;;14.72;68.54
69535;BME280;56754;51.568;5.048;2023-10-19T06:59:36;99196.81;;;14.74;68.62
69535;BME280;56754;51.568;5.048;2023-10-19T07:02:01;99188.75;;;14.74;68.39
69535;BME280;56754;51.568;5.048;2023-10-19T07:04:28;99189.91;;;14.76;68.61
69535;BME280;56754;51.568;5.048;2023-10-19T07:06:53;99183.78;;;14.76;68.43
69535;BME280;56754;51.568;5.048;2023-10-19T07:09:19;99189.91;;;14.76;68.50
69535;BME280;56754;51.568;5.048;2023-10-19T07:11:44;99191.84;;;14.79;68.38
69535;BME280;56754;51.568;5.048;2023-10-19T07:14:10;99189.53;;;14.82;68.23
69535;BME280;56754;51.568;5.048;2023-10-19T07:16:36;99183.03;;;14.83;67.97
69535;BME280;56754;51.568;5.048;2023-10-19T07:19:01;99188.00;;;14.84;68.22
69535;BME280;56754;51.568;5.048;2023-10-19T07:21:26;99192.25;;;14.85;67.87
69535;BME280;56754;51.568;5.048;2023-10-19T07:23:51;99182.28;;;14.86;68.09
69535;BME280;56754;51.568;5.048;2023-10-19T07:26:17;99176.13;;;14.85;68.00
69535;BME280;56754;51.568;5.048;2023-10-19T07:28:42;99184.97;;;14.86;68.20
69535;BME280;56754;51.568;5.048;2023-10-19T07:31:07;99176.50;;;14.87;68.32
69535;BME280;56754;51.568;5.048;2023-10-19T07:33:33;99180.34;;;14.86;68.01
69535;BME280;56754;51.568;5.048;2023-10-19T07:35:58;99192.28;;;14.89;67.90
69535;BME280;56754;51.568;5.048;2023-10-19T07:38:24;99180.75;;;14.92;67.66
69535;BME280;56754;51.568;5.048;2023-10-19T07:40:49;99177.66;;;14.93;67.66
69535;BME280;56754;51.568;5.048;2023-10-19T07:43:15;99175.38;;;14.95;67.45
69535;BME280;56754;51.568;5.048;2023-10-19T07:45:40;99172.69;;;14.95;67.41
69535;BME280;56754;51.568;5.048;2023-10-19T07:48:06;99168.09;;;14.96;67.42
69535;BME280;56754;51.568;5.048;2023-10-19T07:50:35;99163.09;;;14.98;67.41
69535;BME280;56754;51.568;5.048;2023-10-19T07:53:00;99166.94;;;14.97;67.27
69535;BME280;56754;51.568;5.048;2023-10-19T07:55:26;99167.72;;;14.97;67.32
69535;BME280;56754;51.568;5.048;2023-10-19T07:57:51;99173.47;;;14.99;67.20
69535;BME280;56754;51.568;5.048;2023-10-19T08:00:19;99171.56;;;15.00;67.22
69535;BME280;56754;51.568;5.048;2023-10-19T08:02:45;99169.25;;;15.02;67.28
69535;BME280;56754;51.568;5.048;2023-10-19T08:05:10;99165.03;;;15.01;67.17
69535;BME280;56754;51.568;5.048;2023-10-19T08:07:36;99167.72;;;15.01;67.16
69535;BME280;56754;51.568;5.048;2023-10-19T08:10:01;99161.56;;;15.00;67.18
69535;BME280;56754;51.568;5.048;2023-10-19T08:12:26;99173.88;;;15.01;67.16
69535;BME280;56754;51.568;5.048;2023-10-19T08:14:54;99155.44;;;15.00;67.17
69535;BME280;56754;51.568;5.048;2023-10-19T08:17:20;99150.81;;;15.00;67.37
69535;BME280;56754;51.568;5.048;2023-10-19T08:19:45;99150.41;;;15.02;67.28
69535;BME280;56754;51.568;5.048;2023-10-19T08:22:10;99153.09;;;15.02;67.22
69535;BME280;56754;51.568;5.048;2023-10-19T08:24:36;99151.97;;;15.03;67.14
69535;BME280;56754;51.568;5.048;2023-10-19T08:27:01;99157.72;;;15.01;67.18
69535;BME280;56754;51.568;5.048;2023-10-19T08:29:27;99163.88;;;15.02;67.37
69535;BME280;56754;51.568;5.048;2023-10-19T08:31:52;99167.72;;;15.01;67.33
69535;BME280;56754;51.568;5.048;2023-10-19T08:34:17;99169.66;;;15.00;67.49
69535;BME280;56754;51.568;5.048;2023-10-19T08:36:43;99166.97;;;15.00;67.40
69535;BME280;56754;51.568;5.048;2023-10-19T08:39:09;99174.25;;;15.00;67.52
69535;BME280;56754;51.568;5.048;2023-10-19T08:41:35;99167.72;;;15.01;67.49
69535;BME280;56754;51.568;5.048;2023-10-19T08:44:02;99156.97;;;15.01;67.40
69535;BME280;56754;51.568;5.048;2023-10-19T08:46:28;99171.94;;;15.02;67.59
69535;BME280;56754;51.568;5.048;2023-10-19T08:48:55;99162.75;;;15.03;67.41
69535;BME280;56754;51.568;5.048;2023-10-19T08:51:20;99163.13;;;15.05;67.53
69535;BME280;56754;51.568;5.048;2023-10-19T08:53:46;99166.59;;;15.06;67.50
69535;BME280;56754;51.568;5.048;2023-10-19T08:56:11;99166.19;;;15.07;67.63
69535;BME280;56754;51.568;5.048;2023-10-19T08:58:36;99163.50;;;15.07;67.53
69535;BME280;56754;51.568;5.048;2023-10-19T09:01:02;99161.22;;;15.09;67.52
69535;BME280;56754;51.568;5.048;2023-10-19T09:03:27;99157.00;;;15.12;67.45
69535;BME280;56754;51.568;5.048;2023-10-19T09:05:52;99143.56;;;15.12;67.60
69535;BME280;56754;51.568;5.048;2023-10-19T09:08:18;99144.69;;;15.14;67.39
69535;BME280;56754;51.568;5.048;2023-10-19T09:10:44;99134.72;;;15.15;67.35
69535;BME280;56754;51.568;5.048;2023-10-19T09:13:10;99133.94;;;15.18;67.33
69535;BME280;56754;51.568;5.048;2023-10-19T09:15:36;99129.72;;;15.20;67.08
69535;BME280;56754;51.568;5.048;2023-10-19T09:18:22;99135.88;;;15.24;67.15
69535;BME280;56754;51.568;5.048;2023-10-19T09:20:49;99130.91;;;15.27;66.80
69535;BME280;56754;51.568;5.048;2023-10-19T09:23:14;99127.44;;;15.30;66.95
69535;BME280;56754;51.568;5.048;2023-10-19T09:25:40;99131.28;;;15.32;66.97
69535;BME280;56754;51.568;5.048;2023-10-19T09:28:05;99133.22;;;15.35;66.79
69535;BME280;56754;51.568;5.048;2023-10-19T09:30:30;99125.16;;;15.39;67.18
69535;BME280;56754;51.568;5.048;2023-10-19T09:32:57;99128.22;;;15.41;66.91
69535;BME280;56754;51.568;5.048;2023-10-19T09:35:24;99130.94;;;15.44;66.65
69535;BME280;56754;51.568;5.048;2023-10-19T09:37:49;99122.44;;;15.46;66.59
69535;BME280;56754;51.568;5.048;2023-10-19T09:40:14;99115.53;;;15.48;67.86
69535;BME280;56754;51.568;5.048;2023-10-19T09:42:40;99122.09;;;15.51;66.70
69535;BME280;56754;51.568;5.048;2023-10-19T09:45:08;99111.69;;;15.53;66.61
69535;BME280;56754;51.568;5.048;2023-10-19T09:47:38;99109.38;;;15.55;66.29
69535;BME280;56754;51.568;5.048;2023-10-19T09:50:06;99112.47;;;15.57;66.29
69535;BME280;56754;51.568;5.048;2023-10-19T09:52:33;99108.59;;;15.58;66.47
69535;BME280;56754;51.568;5.048;2023-10-19T09:55:05;99104.38;;;15.61;65.92
69535;BME280;56754;51.568;5.048;2023-10-19T09:57:36;99114.78;;;15.62;66.21
69535;BME280;56754;51.568;5.048;2023-10-19T10:00:04;99105.53;;;15.63;65.99
69535;BME280;56754;51.568;5.048;2023-10-19T10:02:31;99107.88;;;15.65;65.77
69535;BME280;56754;51.568;5.048;2023-10-19T10:04:56;99103.25;;;15.65;66.19
69535;BME280;56754;51.568;5.048;2023-10-19T10:07:22;99097.44;;;15.67;65.80
69535;BME280;56754;51.568;5.048;2023-10-19T10:09:48;99098.63;;;15.69;66.13
69535;BME280;56754;51.568;5.048;2023-10-19T10:12:24;99099.81;;;15.72;65.85
69535;BME280;56754;51.568;5.048;2023-10-19T10:15:00;99103.25;;;15.73;65.64
69535;BME280;56754;51.568;5.048;2023-10-19T10:17:25;99105.59;;;15.74;65.60
69535;BME280;56754;51.568;5.048;2023-10-19T10:19:53;99114.03;;;15.76;65.68
69535;BME280;56754;51.568;5.048;2023-10-19T10:22:21;99112.50;;;15.79;65.29
69535;BME280;56754;51.568;5.048;2023-10-19T10:24:46;99107.09;;;15.79;65.33
69535;BME280;56754;51.568;5.048;2023-10-19T10:27:16;99111.72;;;15.78;65.33
69535;BME280;56754;51.568;5.048;2023-10-19T10:29:58;99119.03;;;15.81;65.49
69535;BME280;56754;51.568;5.048;2023-10-19T10:32:45;99115.19;;;15.82;66.03
69535;BME280;56754;51.568;5.048;2023-10-19T10:38:06;99121.34;;;15.86;65.22
69535;BME280;56754;51.568;5.048;2023-10-19T10:43:13;99139.44;;;15.86;65.54
69535;BME280;56754;51.568;5.048;2023-10-19T10:45:39;99125.22;;;15.85;65.59
69535;BME280;56754;51.568;5.048;2023-10-19T10:48:11;99123.28;;;15.86;65.40
69535;BME280;56754;51.568;5.048;2023-10-19T10:50:37;99124.03;;;15.86;65.22
69535;BME280;56754;51.568;5.048;2023-10-19T10:53:04;99120.19;;;15.87;65.38
69535;BME280;56754;51.568;5.048;2023-10-19T10:55:30;99127.91;;;15.89;65.41
69535;BME280;56754;51.568;5.048;2023-10-19T10:57:55;99121.34;;;15.90;65.33
69535;BME280;56754;51.568;5.048;2023-10-19T11:00:20;99108.63;;;15.90;65.13
69535;BME280;56754;51.568;5.048;2023-10-19T11:02:47;99109.78;;;15.93;65.20
69535;BME280;56754;51.568;5.048;2023-10-19T11:05:23;99102.47;;;15.93;65.34
69535;BME280;56754;51.568;5.048;2023-10-19T11:08:05;99086.69;;;15.96;65.31
69535;BME280;56754;51.568;5.048;2023-10-19T11:10:32;99085.94;;;15.95;65.16
69535;BME280;56754;51.568;5.048;2023-10-19T11:13:07;99088.22;;;15.97;65.04
69535;BME280;56754;51.568;5.048;2023-10-19T11:15:34;99085.53;;;15.97;65.02
69535;BME280;56754;51.568;5.048;2023-10-19T11:17:59;99079.00;;;15.98;64.95
69535;BME280;56754;51.568;5.048;2023-10-19T11:20:26;99083.22;;;15.99;65.04
69535;BME280;56754;51.568;5.048;2023-10-19T11:22:52;99071.69;;;15.98;65.07
69535;BME280;56754;51.568;5.048;2023-10-19T11:25:27;99070.50;;;15.99;65.03
69535;BME280;56754;51.568;5.048;2023-10-19T11:27:54;99074.75;;;16.00;65.08
69535;BME280;56754;51.568;5.048;2023-10-19T11:30:27;99072.44;;;16.02;65.07
69535;BME280;56754;51.568;5.048;2023-10-19T11:32:53;99057.81;;;16.03;65.10
69535;BME280;56754;51.568;5.048;2023-10-19T11:35:21;99058.59;;;16.04;64.98
69535;BME280;56754;51.568;5.048;2023-10-19T11:37:51;99063.97;;;16.04;65.11
69535;BME280;56754;51.568;5.048;2023-10-19T11:40:16;99058.59;;;16.04;64.94
69535;BME280;56754;51.568;5.048;2023-10-19T11:42:42;99055.88;;;16.04;65.12
69535;BME280;56754;51.568;5.048;2023-10-19T11:45:08;99047.03;;;16.03;64.92
69535;BME280;56754;51.568;5.048;2023-10-19T11:47:33;99052.44;;;16.03;64.96
69535;BME280;56754;51.568;5.048;2023-10-19T11:49:59;99047.81;;;16.04;65.18
69535;BME280;56754;51.568;5.048;2023-10-19T11:52:24;99047.03;;;16.03;65.12
69535;BME280;56754;51.568;5.048;2023-10-19T11:54:49;99057.41;;;16.05;65.03
69535;BME280;56754;51.568;5.048;2023-10-19T11:57:15;99056.25;;;16.06;65.05
69535;BME280;56754;51.568;5.048;2023-10-19T11:59:40;99044.72;;;16.05;65.14
69535;BME280;56754;51.568;5.048;2023-10-19T12:02:05;99056.25;;;16.06;65.12
69535;BME280;56754;51.568;5.048;2023-10-19T12:04:30;99042.78;;;16.06;65.05
69535;BME280;56754;51.568;5.048;2023-10-19T12:06:56;99059.75;;;16.06;65.11
69535;BME280;56754;51.568;5.048;2023-10-19T12:09:21;99056.25;;;16.06;65.21
69535;BME280;56754;51.568;5.048;2023-10-19T12:11:46;99047.41;;;16.05;65.04
69535;BME280;56754;51.568;5.048;2023-10-19T12:14:11;99049.34;;;16.05;65.14
69535;BME280;56754;51.568;5.048;2023-10-19T12:16:37;99040.88;;;16.06;65.11
69535;BME280;56754;51.568;5.048;2023-10-19T12:19:02;99040.88;;;16.06;65.19
69535;BME280;56754;51.568;5.048;2023-10-19T12:21:27;99044.34;;;16.07;65.06
69535;BME280;56754;51.568;5.048;2023-10-19T12:23:53;99042.41;;;16.07;65.00
69535;BME280;56754;51.568;5.048;2023-10-19T12:26:18;99037.00;;;16.07;64.81
69535;BME280;56754;51.568;5.048;2023-10-19T12:28:43;99035.06;;;16.08;65.21
69535;BME280;56754;51.568;5.048;2023-10-19T12:31:09;99037.78;;;16.08;65.06
69535;BME280;56754;51.568;5.048;2023-10-19T12:33:35;99037.00;;;16.07;65.03
69535;BME280;56754;51.568;5.048;2023-10-19T12:36:00;99031.63;;;16.07;65.17
69535;BME280;56754;51.568;5.048;2023-10-19T12:38:26;99027.75;;;16.08;65.13
69535;BME280;56754;51.568;5.048;2023-10-19T12:40:51;99027.75;;;16.08;65.04
69535;BME280;56754;51.568;5.048;2023-10-19T12:43:17;99033.91;;;16.09;65.09
69535;BME280;56754;51.568;5.048;2023-10-19T12:45:42;99033.16;;;16.08;65.17
69535;BME280;56754;51.568;5.048;2023-10-19T12:48:08;99030.06;;;16.10;65.24
69535;BME280;56754;51.568;5.048;2023-10-19T12:50:34;99022.38;;;16.12;65.18
69535;BME280;56754;51.568;5.048;2023-10-19T12:52:59;99020.06;;;16.10;65.05
69535;BME280;56754;51.568;5.048;2023-10-19T12:55:25;99011.97;;;16.10;65.17
69535;BME280;56754;51.568;5.048;2023-10-19T12:57:50;98997.75;;;16.10;65.18
69535;BME280;56754;51.568;5.048;2023-10-19T13:00:15;99008.13;;;16.11;65.12